createdAt,value
2022-11-05T00:00:38.103Z,83.60
2022-11-05T00:03:23.762Z,83.60
2022-11-05T00:06:12.368Z,83.60
2022-11-05T00:08:59.199Z,83.50
2022-11-05T00:11:46.451Z,83.50
2022-11-05T00:14:32.958Z,83.90
2022-11-05T00:17:00.318Z,83.40
2022-11-05T00:19:27.131Z,83.30
2022-11-05T00:22:12.860Z,83.30
2022-11-05T00:24:58.174Z,83.30
2022-11-05T00:27:25.382Z,83.30
2022-11-05T00:29:52.228Z,83.40
2022-11-05T00:32:19.253Z,83.40
2022-11-05T00:34:46.317Z,83.40
2022-11-05T00:37:13.232Z,83.40
2022-11-05T00:39:40.050Z,83.40
2022-11-05T00:42:25.683Z,83.70
2022-11-05T00:45:01.557Z,83.60
2022-11-05T00:47:51.551Z,83.60
2022-11-05T00:50:22.677Z,83.80
2022-11-05T00:52:58.222Z,83.80
2022-11-05T00:55:40.916Z,83.70
2022-11-05T00:58:13.508Z,83.70
2022-11-05T01:00:48.199Z,83.60
2022-11-05T01:03:18.431Z,83.60
2022-11-05T01:05:58.648Z,83.60
2022-11-05T01:08:27.683Z,83.70
2022-11-05T01:10:57.234Z,83.60
2022-11-05T01:13:31.415Z,83.60
2022-11-05T01:15:58.360Z,83.80
2022-11-05T01:18:25.278Z,83.80
2022-11-05T01:20:52.550Z,83.90
2022-11-05T01:23:19.874Z,84.20
2022-11-05T01:25:47.250Z,84.00
2022-11-05T01:28:14.147Z,84.00
2022-11-05T01:30:41.082Z,84.10
2022-11-05T01:33:08.158Z,84.10
2022-11-05T01:35:35.974Z,84.20
2022-11-05T01:38:02.815Z,84.30
2022-11-05T01:40:29.980Z,84.40
2022-11-05T01:42:57.026Z,84.40
2022-11-05T01:45:28.892Z,84.40
2022-11-05T01:48:07.088Z,84.40
2022-11-05T01:50:47.630Z,84.40
2022-11-05T01:53:38.633Z,84.40
2022-11-05T01:56:28.783Z,84.40
2022-11-05T01:59:27.221Z,84.30
2022-11-05T02:01:55.064Z,84.40
2022-11-05T02:04:54.679Z,84.20
2022-11-05T02:07:24.997Z,84.40
2022-11-05T02:10:10.106Z,84.20
2022-11-05T02:12:39.516Z,84.30
2022-11-05T02:15:07.292Z,84.10
2022-11-05T02:17:51.703Z,84.10
2022-11-05T02:20:58.656Z,84.20
2022-11-05T02:23:40.914Z,84.20
2022-11-05T02:26:51.865Z,84.10
2022-11-05T02:29:47.114Z,84.20
2022-11-05T02:32:32.700Z,84.00
2022-11-05T02:35:32.163Z,84.00
2022-11-05T02:38:09.464Z,84.00
2022-11-05T02:41:01.507Z,83.90
2022-11-05T02:43:47.294Z,83.90
2022-11-05T02:46:45.772Z,83.80
2022-11-05T02:49:53.327Z,83.90
2022-11-05T02:52:40.707Z,83.80
2022-11-05T02:55:22.166Z,83.70
2022-11-05T02:57:49.305Z,83.50
2022-11-05T03:00:35.151Z,83.40
2022-11-05T03:03:03.448Z,83.30
2022-11-05T03:05:48.332Z,83.20
2022-11-05T03:08:55.370Z,83.20
2022-11-05T03:11:26.542Z,83.30
2022-11-05T03:14:39.813Z,83.10
2022-11-05T03:17:25.958Z,83.20
2022-11-05T03:20:10.652Z,83.20
2022-11-05T03:22:59.549Z,83.30
2022-11-05T03:25:29.430Z,83.40
2022-11-05T03:28:03.748Z,83.40
2022-11-05T03:30:33.934Z,83.50
2022-11-05T03:33:11.340Z,83.50
2022-11-05T03:35:47.340Z,83.40
2022-11-05T03:38:22.095Z,83.40
2022-11-05T03:40:54.364Z,83.40
2022-11-05T03:43:27.520Z,83.30
2022-11-05T03:46:03.708Z,83.30
2022-11-05T03:48:32.657Z,83.30
2022-11-05T03:51:32.319Z,83.40
2022-11-05T03:54:03.147Z,83.70
2022-11-05T03:57:15.334Z,83.60
2022-11-05T03:59:49.037Z,83.70
2022-11-05T04:02:19.589Z,83.70
2022-11-05T04:04:47.175Z,83.70
2022-11-05T04:07:33.114Z,83.70
2022-11-05T04:10:18.619Z,83.80
2022-11-05T04:13:04.179Z,83.80
2022-11-05T04:15:31.327Z,83.90
2022-11-05T04:17:58.996Z,84.00
2022-11-05T04:20:45.638Z,84.10
2022-11-05T04:23:31.047Z,84.10
2022-11-05T04:25:58.106Z,84.10
2022-11-05T04:28:44.856Z,84.10
2022-11-05T04:31:11.914Z,84.20
2022-11-05T04:33:38.703Z,84.20
2022-11-05T04:36:06.023Z,84.10
2022-11-05T04:38:32.876Z,84.30
2022-11-05T04:41:16.606Z,84.20
2022-11-05T04:43:44.305Z,84.40
2022-11-05T04:46:11.382Z,84.20
2022-11-05T04:48:38.437Z,84.30
2022-11-05T04:51:05.686Z,84.30
2022-11-05T04:53:32.671Z,84.30
2022-11-05T04:56:29.260Z,84.20
2022-11-05T04:58:56.180Z,84.50
2022-11-05T05:01:25.422Z,84.20
2022-11-05T05:03:54.301Z,84.20
2022-11-05T05:06:21.618Z,84.20
2022-11-05T05:08:50.624Z,84.20
2022-11-05T05:11:20.935Z,84.30
2022-11-05T05:13:48.875Z,84.40
2022-11-05T05:16:21.857Z,84.40
2022-11-05T05:18:49.354Z,84.60
2022-11-05T05:21:37.462Z,84.60
2022-11-05T05:24:17.304Z,84.70
2022-11-05T05:26:49.928Z,84.80
2022-11-05T05:29:18.123Z,84.90
2022-11-05T05:31:45.163Z,84.90
2022-11-05T05:34:14.350Z,84.80
2022-11-05T05:36:41.432Z,85.00
2022-11-05T05:39:10.889Z,84.90
2022-11-05T05:41:37.954Z,85.00
2022-11-05T05:44:06.277Z,85.00
2022-11-05T05:46:33.591Z,85.00
2022-11-05T05:49:00.937Z,85.00
2022-11-05T05:51:27.841Z,85.00
2022-11-05T05:53:54.861Z,85.10
2022-11-05T05:56:22.281Z,85.10
2022-11-05T05:58:49.266Z,85.00
2022-11-05T06:01:19.560Z,85.00
2022-11-05T06:03:48.364Z,85.00
2022-11-05T06:06:19.932Z,85.00
2022-11-05T06:08:48.888Z,85.00
2022-11-05T06:11:16.207Z,85.00
2022-11-05T06:13:43.113Z,85.00
2022-11-05T06:16:10.542Z,85.00
2022-11-05T06:18:37.820Z,85.00
2022-11-05T06:21:07.776Z,85.00
2022-11-05T06:23:37.569Z,85.00
2022-11-05T06:26:07.709Z,84.90
2022-11-05T06:28:34.822Z,85.00
2022-11-05T06:31:02.013Z,84.90
2022-11-05T06:33:28.915Z,84.90
2022-11-05T06:35:59.626Z,84.90
2022-11-05T06:38:27.075Z,84.80
2022-11-05T06:40:53.873Z,84.80
2022-11-05T06:43:20.840Z,84.90
2022-11-05T06:45:47.776Z,84.80
2022-11-05T06:48:14.696Z,84.70
2022-11-05T06:50:45.225Z,84.70
2022-11-05T06:53:13.551Z,84.80
2022-11-05T06:55:40.971Z,84.70
2022-11-05T06:58:07.966Z,84.80
2022-11-05T07:00:35.162Z,84.80
2022-11-05T07:03:06.747Z,84.80
2022-11-05T07:05:38.089Z,84.80
2022-11-05T07:08:05.342Z,84.80
2022-11-05T07:10:32.379Z,84.70
2022-11-05T07:13:07.848Z,84.70
2022-11-05T07:15:35.682Z,84.70
2022-11-05T07:18:03.164Z,84.60
2022-11-05T07:20:33.837Z,84.50
2022-11-05T07:23:08.814Z,84.60
2022-11-05T07:25:36.385Z,84.50
2022-11-05T07:28:04.509Z,84.50
2022-11-05T07:30:33.400Z,84.50
2022-11-05T07:33:00.292Z,84.50
2022-11-05T07:35:28.047Z,84.60
2022-11-05T07:37:55.848Z,84.70
2022-11-05T07:40:26.331Z,84.80
2022-11-05T07:43:00.100Z,85.00
2022-11-05T07:45:30.355Z,85.20
2022-11-05T07:48:03.208Z,85.50
2022-11-05T07:50:34.289Z,85.90
2022-11-05T07:53:11.272Z,86.00
2022-11-05T07:55:40.389Z,85.90
2022-11-05T07:58:07.478Z,85.70
2022-11-05T08:00:34.829Z,85.50
2022-11-05T08:03:14.669Z,85.30
2022-11-05T08:05:45.983Z,84.90
2022-11-05T08:08:18.635Z,84.70
2022-11-05T08:10:46.749Z,84.60
2022-11-05T08:13:14.696Z,84.80
2022-11-05T08:15:42.803Z,84.60
2022-11-05T08:18:17.859Z,84.30
2022-11-05T08:20:46.419Z,83.80
2022-11-05T08:23:14.108Z,83.80
2022-11-05T08:25:42.115Z,83.50
2022-11-05T08:28:12.228Z,82.60
2022-11-05T08:30:39.786Z,81.00
2022-11-05T08:33:11.387Z,79.70
2022-11-05T08:35:39.362Z,77.70
2022-11-05T08:38:08.998Z,76.20
2022-11-05T08:40:37.743Z,74.90
2022-11-05T08:43:06.929Z,74.10
2022-11-05T08:45:38.328Z,73.20
2022-11-05T08:48:17.526Z,72.30
2022-11-05T08:50:47.637Z,71.10
2022-11-05T08:53:16.029Z,71.10
2022-11-05T08:55:44.192Z,71.10
2022-11-05T08:58:15.258Z,71.00
2022-11-05T09:00:43.849Z,70.80
2022-11-05T09:03:11.614Z,70.90
2022-11-05T09:05:41.192Z,71.00
2022-11-05T09:08:14.804Z,70.50
2022-11-05T09:10:42.854Z,70.10
2022-11-05T09:13:17.827Z,70.10
2022-11-05T09:15:50.243Z,69.90
2022-11-05T09:18:18.517Z,70.00
2022-11-05T09:20:45.819Z,69.90
2022-11-05T09:23:16.925Z,69.80
2022-11-05T09:25:44.696Z,69.60
2022-11-05T09:28:21.706Z,69.60
2022-11-05T09:30:51.588Z,69.80
2022-11-05T09:33:23.240Z,70.50
2022-11-05T09:35:50.407Z,70.60
2022-11-05T09:38:17.390Z,70.30
2022-11-05T09:41:27.520Z,69.10
2022-11-05T09:44:01.801Z,66.20
2022-11-05T09:46:42.098Z,65.70
2022-11-05T09:49:24.440Z,63.90
2022-11-05T09:51:54.806Z,61.50
2022-11-05T09:54:31.466Z,60.60
2022-11-05T09:57:02.631Z,58.60
2022-11-05T09:59:41.309Z,57.70
2022-11-05T10:02:32.635Z,56.30
2022-11-05T10:05:13.120Z,53.80
2022-11-05T10:07:49.058Z,53.00
2022-11-05T10:10:41.111Z,53.30
2022-11-05T10:13:49.025Z,49.80
2022-11-05T10:16:35.851Z,50.40
2022-11-05T10:19:14.944Z,49.80
2022-11-05T10:22:05.420Z,48.80
2022-11-05T10:24:29.355Z,48.40
2022-11-05T10:26:57.034Z,48.00
2022-11-05T10:29:33.392Z,47.10
2022-11-05T10:32:01.625Z,43.80
2022-11-05T10:34:34.047Z,45.20
2022-11-05T10:37:01.201Z,43.40
2022-11-05T10:39:31.352Z,43.00
2022-11-05T10:42:05.167Z,41.00
2022-11-05T10:45:16.014Z,39.60
2022-11-05T10:48:17.111Z,38.80
2022-11-05T10:50:44.479Z,38.30
2022-11-05T10:53:19.572Z,39.00
2022-11-05T10:55:49.566Z,37.30
2022-11-05T10:58:16.422Z,37.90
2022-11-05T11:00:52.475Z,37.40
2022-11-05T11:03:45.056Z,35.40
2022-11-05T11:06:29.131Z,33.80
2022-11-05T11:09:00.041Z,33.40
2022-11-05T11:11:40.838Z,33.60
2022-11-05T11:14:13.942Z,33.40
2022-11-05T11:16:57.285Z,31.80
2022-11-05T11:19:35.788Z,30.90
2022-11-05T11:22:05.677Z,31.00
2022-11-05T11:24:43.319Z,30.10
2022-11-05T11:27:16.303Z,29.20
2022-11-05T11:29:50.788Z,29.50
2022-11-05T11:32:21.089Z,29.00
2022-11-05T11:34:52.868Z,29.00
2022-11-05T11:37:29.560Z,28.40
2022-11-05T11:40:04.281Z,28.60
2022-11-05T11:42:35.880Z,28.40
2022-11-05T11:45:44.539Z,28.30
2022-11-05T11:48:22.850Z,27.70
2022-11-05T11:50:50.223Z,27.60
2022-11-05T11:53:20.099Z,27.40
2022-11-05T11:56:06.518Z,27.10
2022-11-05T11:58:58.091Z,26.70
2022-11-05T12:02:06.044Z,27.50
2022-11-05T12:05:05.667Z,27.40
2022-11-05T12:07:49.794Z,27.70
2022-11-05T12:10:42.276Z,26.50
2022-11-05T12:13:48.410Z,26.50
2022-11-05T12:16:43.329Z,25.90
2022-11-05T12:19:28.357Z,26.70
2022-11-05T12:22:04.195Z,27.20
2022-11-05T12:25:02.602Z,27.40
2022-11-05T12:27:43.134Z,27.40
2022-11-05T12:30:20.717Z,28.00
2022-11-05T12:33:21.559Z,27.50
2022-11-05T12:36:03.869Z,26.90
2022-11-05T12:39:20.175Z,27.50
2022-11-05T12:42:14.377Z,27.10
2022-11-05T12:45:01.825Z,26.70
2022-11-05T12:48:07.883Z,26.90
2022-11-05T12:50:53.592Z,26.40
2022-11-05T12:54:01.276Z,26.10
2022-11-05T12:56:34.386Z,25.90
2022-11-05T12:59:21.292Z,26.90
2022-11-05T13:02:16.333Z,26.10
2022-11-05T13:05:13.344Z,25.50
2022-11-05T13:07:49.487Z,26.10
2022-11-05T13:10:30.978Z,26.50
2022-11-05T13:13:24.408Z,26.60
2022-11-05T13:16:04.109Z,26.50
2022-11-05T13:18:54.916Z,26.90
2022-11-05T13:21:25.492Z,26.70
2022-11-05T13:24:17.155Z,26.80
2022-11-05T13:26:55.210Z,26.80
2022-11-05T13:29:48.638Z,26.60
2022-11-05T13:32:24.746Z,26.60
2022-11-05T13:34:55.786Z,26.30
2022-11-05T13:37:50.541Z,26.70
2022-11-05T13:40:25.501Z,26.30
2022-11-05T13:43:13.289Z,26.20
2022-11-05T13:46:19.314Z,26.20
2022-11-05T13:48:55.241Z,26.00
2022-11-05T13:51:43.959Z,26.30
2022-11-05T13:54:59.120Z,26.30
2022-11-05T13:57:50.173Z,26.80
2022-11-05T14:00:21.683Z,26.60
2022-11-05T14:03:02.039Z,27.20
2022-11-05T14:05:37.535Z,27.20
2022-11-05T14:08:17.682Z,27.80
2022-11-05T14:11:07.813Z,28.40
2022-11-05T14:13:39.647Z,29.10
2022-11-05T14:16:09.059Z,29.70
2022-11-05T14:18:47.403Z,30.10
2022-11-05T14:21:47.998Z,31.20
2022-11-05T14:24:28.347Z,32.50
2022-11-05T14:27:01.590Z,33.40
2022-11-05T14:29:44.013Z,34.20
2022-11-05T14:32:17.157Z,35.20
2022-11-05T14:35:14.065Z,35.90
2022-11-05T14:37:52.115Z,36.60
2022-11-05T14:40:21.891Z,37.10
2022-11-05T14:42:57.994Z,38.00
2022-11-05T14:45:41.022Z,38.80
2022-11-05T14:48:38.859Z,39.60
2022-11-05T14:51:33.329Z,40.50
2022-11-05T14:54:24.495Z,41.10
2022-11-05T14:56:56.400Z,41.80
2022-11-05T14:59:32.022Z,42.00
2022-11-05T15:02:14.471Z,42.90
2022-11-05T15:04:48.126Z,43.40
2022-11-05T15:07:24.243Z,43.70
2022-11-05T15:10:14.119Z,44.50
2022-11-05T15:12:54.453Z,45.40
2022-11-05T15:15:29.749Z,45.40
2022-11-05T15:18:27.326Z,45.60
2022-11-05T15:20:56.793Z,46.40
2022-11-05T15:23:29.983Z,45.10
2022-11-05T15:26:29.849Z,46.20
2022-11-05T15:28:57.258Z,47.50
2022-11-05T15:31:45.423Z,47.30
2022-11-05T15:34:35.805Z,48.40
2022-11-05T15:37:27.254Z,48.70
2022-11-05T15:39:55.529Z,49.30
2022-11-05T15:42:25.745Z,49.20
2022-11-05T15:44:57.644Z,49.50
2022-11-05T15:47:28.328Z,49.80
2022-11-05T15:50:09.995Z,50.20
2022-11-05T15:52:50.279Z,51.20
2022-11-05T15:55:23.883Z,50.90
2022-11-05T15:58:05.231Z,51.30
2022-11-05T16:00:36.589Z,51.60
2022-11-05T16:03:17.550Z,52.00
2022-11-05T16:05:47.695Z,52.30
2022-11-05T16:08:26.284Z,52.50
2022-11-05T16:11:00.041Z,53.20
2022-11-05T16:13:39.255Z,53.20
2022-11-05T16:16:13.365Z,53.80
2022-11-05T16:18:41.057Z,53.70
2022-11-05T16:21:18.844Z,54.00
2022-11-05T16:23:48.490Z,54.50
2022-11-05T16:29:37.820Z,55.50
2022-11-05T16:32:16.191Z,55.10
2022-11-05T16:34:48.590Z,55.70
2022-11-05T16:37:20.866Z,56.10
2022-11-05T16:39:48.313Z,56.40
2022-11-05T16:42:35.060Z,56.60
2022-11-05T16:45:01.973Z,57.70
2022-11-05T16:47:31.030Z,57.10
2022-11-05T16:49:58.493Z,57.50
2022-11-05T16:52:25.545Z,57.90
2022-11-05T16:54:52.473Z,58.20
2022-11-05T16:57:26.942Z,58.50
2022-11-05T16:59:59.391Z,59.10
2022-11-05T17:02:26.837Z,59.10
2022-11-05T17:04:53.845Z,59.30
2022-11-05T17:07:21.015Z,59.60
2022-11-05T17:09:48.135Z,60.00
2022-11-05T17:12:16.247Z,60.10
2022-11-05T17:14:43.206Z,60.30
2022-11-05T17:17:11.135Z,60.70
2022-11-05T17:19:42.165Z,61.30
2022-11-05T17:22:09.253Z,61.30
2022-11-05T17:24:36.432Z,61.60
2022-11-05T17:27:03.771Z,61.80
2022-11-05T17:29:30.814Z,62.20
2022-11-05T17:31:58.128Z,62.50
2022-11-05T17:34:24.962Z,62.90
2022-11-05T17:36:51.955Z,63.00
2022-11-05T17:39:18.839Z,63.30
2022-11-05T17:41:46.114Z,63.50
2022-11-05T17:44:12.989Z,63.80
2022-11-05T17:46:40.622Z,64.10
2022-11-05T17:49:07.439Z,64.30
2022-11-05T17:51:34.837Z,64.50
2022-11-05T17:54:01.945Z,64.70
2022-11-05T17:56:34.440Z,64.90
2022-11-05T17:59:03.443Z,65.00
2022-11-05T18:01:33.955Z,65.20
2022-11-05T18:04:07.127Z,65.40
2022-11-05T18:06:38.279Z,65.50
2022-11-05T18:09:06.913Z,65.80
2022-11-05T18:11:35.255Z,66.00
2022-11-05T18:14:03.123Z,66.30
2022-11-05T18:16:30.418Z,66.50
2022-11-05T18:18:57.600Z,66.80
2022-11-05T18:21:25.035Z,66.90
2022-11-05T18:23:52.867Z,67.10
2022-11-05T18:26:19.917Z,67.40
2022-11-05T18:28:46.812Z,68.30
2022-11-05T18:31:18.576Z,67.70
2022-11-05T18:33:46.846Z,68.00
2022-11-05T18:36:23.531Z,68.20
2022-11-05T18:38:51.478Z,68.70
2022-11-05T18:41:20.028Z,68.50
2022-11-05T18:43:47.697Z,68.60
2022-11-05T18:46:29.672Z,68.70
2022-11-05T18:49:03.078Z,69.00
2022-11-05T18:51:30.492Z,69.00
2022-11-05T18:53:58.298Z,69.20
2022-11-05T18:56:25.179Z,69.50
2022-11-05T18:59:14.608Z,69.60
2022-11-05T19:01:41.840Z,69.90
2022-11-05T19:04:09.497Z,69.90
2022-11-05T19:06:38.822Z,70.00
2022-11-05T19:09:08.867Z,70.20
2022-11-05T19:11:36.513Z,70.60
2022-11-05T19:14:03.422Z,70.60
2022-11-05T19:16:31.434Z,70.80
2022-11-05T19:19:00.501Z,71.10
2022-11-05T19:21:27.955Z,71.30
2022-11-05T19:24:00.401Z,71.40
2022-11-05T19:26:29.049Z,71.60
2022-11-05T19:28:59.021Z,71.70
2022-11-05T19:31:27.581Z,71.80
2022-11-05T19:33:54.791Z,71.90
2022-11-05T19:36:24.070Z,72.10
2022-11-05T19:39:01.026Z,72.20
2022-11-05T19:41:28.397Z,72.50
2022-11-05T19:43:57.871Z,72.30
2022-11-05T19:46:25.697Z,72.40
2022-11-05T19:48:52.890Z,72.70
2022-11-05T19:51:29.627Z,72.70
2022-11-05T19:53:56.852Z,73.10
2022-11-05T19:56:29.983Z,73.20
2022-11-05T19:58:58.265Z,72.40
2022-11-05T20:01:27.630Z,72.50
2022-11-05T20:03:57.154Z,72.80
2022-11-05T20:06:30.741Z,73.10
2022-11-05T20:11:49.274Z,73.50
2022-11-05T20:14:16.624Z,73.70
2022-11-05T20:16:45.010Z,73.80
2022-11-05T20:19:17.457Z,73.90
2022-11-05T20:21:45.114Z,74.00
2022-11-05T20:24:17.484Z,74.80
2022-11-05T20:26:49.655Z,74.10
2022-11-05T20:29:16.490Z,74.30
2022-11-05T20:31:43.363Z,74.30
2022-11-05T20:34:10.546Z,74.30
2022-11-05T20:36:38.698Z,74.30
2022-11-05T20:39:05.852Z,74.30
2022-11-05T20:41:33.243Z,74.30
2022-11-05T20:44:00.280Z,74.40
2022-11-05T20:46:27.670Z,74.50
2022-11-05T20:48:54.970Z,74.70
2022-11-05T20:51:24.246Z,74.80
2022-11-05T20:54:01.218Z,74.90
2022-11-05T20:56:31.688Z,75.10
2022-11-05T20:59:00.531Z,75.20
2022-11-05T21:01:33.918Z,75.40
2022-11-05T21:04:02.769Z,75.70
2022-11-05T21:06:30.342Z,75.80
2022-11-05T21:08:57.527Z,76.10
2022-11-05T21:11:24.486Z,76.30
2022-11-05T21:13:51.645Z,76.40
2022-11-05T21:16:19.884Z,76.40
2022-11-05T21:18:47.719Z,76.60
2022-11-05T21:21:19.374Z,76.60
2022-11-05T21:23:46.590Z,76.60
2022-11-05T21:26:15.229Z,76.70
2022-11-05T21:28:42.907Z,76.80
2022-11-05T21:31:10.892Z,76.80
2022-11-05T21:33:38.425Z,76.90
2022-11-05T21:36:12.166Z,76.90
2022-11-05T21:38:40.584Z,77.00
2022-11-05T21:41:08.757Z,76.90
2022-11-05T21:43:38.327Z,76.90
2022-11-05T21:46:05.488Z,76.90
2022-11-05T21:48:33.064Z,76.90
2022-11-05T21:51:18.708Z,76.90
2022-11-05T21:54:04.019Z,76.80
2022-11-05T21:56:50.096Z,76.80
2022-11-05T21:59:40.422Z,76.80
2022-11-05T22:02:11.405Z,76.90
2022-11-05T22:04:47.771Z,76.80
2022-11-05T22:07:17.784Z,76.90
2022-11-05T22:09:44.828Z,76.90
2022-11-05T22:12:12.068Z,76.80
2022-11-05T22:14:39.574Z,77.00
2022-11-05T22:17:08.320Z,77.00
2022-11-05T22:19:35.576Z,77.10
2022-11-05T22:22:05.195Z,77.10
2022-11-05T22:24:33.893Z,77.10
2022-11-05T22:27:04.386Z,77.20
2022-11-05T22:29:31.464Z,77.20
2022-11-05T22:31:58.350Z,77.20
2022-11-05T22:34:25.931Z,77.30
2022-11-05T22:36:53.977Z,77.40
2022-11-05T22:39:21.095Z,77.50
2022-11-05T22:41:48.756Z,77.50
2022-11-05T22:44:17.266Z,77.50
2022-11-05T22:46:44.459Z,77.60
2022-11-05T22:49:11.794Z,77.70
2022-11-05T22:51:39.844Z,77.70
2022-11-05T22:54:08.063Z,77.70
2022-11-05T22:56:40.034Z,77.90
2022-11-05T22:59:10.696Z,78.20
2022-11-05T23:01:37.630Z,78.50
2022-11-05T23:04:05.087Z,78.60
2022-11-05T23:06:52.070Z,78.90
2022-11-05T23:09:42.123Z,79.20
2022-11-05T23:12:35.386Z,79.50
2022-11-05T23:15:05.951Z,79.90
2022-11-05T23:17:51.927Z,79.90
2022-11-05T23:20:41.461Z,80.10
2022-11-05T23:23:31.315Z,80.30
2022-11-05T23:26:00.119Z,80.60
2022-11-05T23:28:27.135Z,80.60
2022-11-05T23:31:13.815Z,80.80
2022-11-05T23:33:40.651Z,80.90
2022-11-05T23:36:31.719Z,80.90
2022-11-05T23:38:58.831Z,81.00
2022-11-05T23:41:44.296Z,80.90
2022-11-05T23:44:29.615Z,80.80
2022-11-05T23:47:15.206Z,80.80
2022-11-05T23:49:42.120Z,80.80
2022-11-05T23:52:08.946Z,80.70
2022-11-05T23:54:36.303Z,80.50
2022-11-05T23:57:03.154Z,80.50
2022-11-05T23:59:30.214Z,80.40
